sensor_id;sensor_type;location;lat;lon;timestamp;P1;durP1;ratioP1;P2;durP2;ratioP2
64851;SDS011;56050;55.558;-4.644;2024-02-21T00:01:58;8.20;;;2.00;;
64851;SDS011;56050;55.558;-4.644;2024-02-21T00:06:49;2.10;;;1.07;;
64851;SDS011;56050;55.558;-4.644;2024-02-21T00:11:40;10.90;;;1.37;;
64851;SDS011;56050;55.558;-4.644;2024-02-21T00:16:31;3.42;;;1.88;;
64851;SDS011;56050;55.558;-4.644;2024-02-21T00:18:56;11.05;;;2.80;;
64851;SDS011;56050;55.558;-4.644;2024-02-21T00:21:22;6.53;;;1.17;;
64851;SDS011;56050;55.558;-4.644;2024-02-21T00:26:15;4.45;;;2.28;;
64851;SDS011;56050;55.558;-4.644;2024-02-21T00:28:40;7.55;;;1.27;;
64851;SDS011;56050;55.558;-4.644;2024-02-21T00:33:31;6.90;;;0.53;;
64851;SDS011;56050;55.558;-4.644;2024-02-21T00:38:22;6.50;;;0.90;;
64851;SDS011;56050;55.558;-4.644;2024-02-21T00:43:13;8.43;;;1.17;;
64851;SDS011;56050;55.558;-4.644;2024-02-21T00:45:38;8.02;;;2.60;;
64851;SDS011;56050;55.558;-4.644;2024-02-21T00:48:04;9.75;;;2.78;;
64851;SDS011;56050;55.558;-4.644;2024-02-21T00:50:30;7.03;;;1.23;;
64851;SDS011;56050;55.558;-4.644;2024-02-21T00:52:55;8.55;;;1.92;;
64851;SDS011;56050;55.558;-4.644;2024-02-21T00:57:46;4.90;;;0.93;;
64851;SDS011;56050;55.558;-4.644;2024-02-21T01:00:12;2.97;;;1.23;;
64851;SDS011;56050;55.558;-4.644;2024-02-21T01:02:37;2.45;;;1.58;;
64851;SDS011;56050;55.558;-4.644;2024-02-21T01:07:28;4.38;;;1.17;;
64851;SDS011;56050;55.558;-4.644;2024-02-21T01:09:54;5.72;;;0.95;;
64851;SDS011;56050;55.558;-4.644;2024-02-21T01:12:19;5.30;;;1.20;;
64851;SDS011;56050;55.558;-4.644;2024-02-21T01:14:45;5.40;;;1.15;;
64851;SDS011;56050;55.558;-4.644;2024-02-21T01:17:14;7.25;;;1.05;;
64851;SDS011;56050;55.558;-4.644;2024-02-21T01:22:05;4.75;;;2.95;;
64851;SDS011;56050;55.558;-4.644;2024-02-21T01:26:56;7.40;;;1.33;;
64851;SDS011;56050;55.558;-4.644;2024-02-21T01:29:21;6.30;;;0.75;;
64851;SDS011;56050;55.558;-4.644;2024-02-21T01:31:47;6.72;;;2.40;;
64851;SDS011;56050;55.558;-4.644;2024-02-21T01:36:38;9.70;;;1.30;;
64851;SDS011;56050;55.558;-4.644;2024-02-21T01:39:03;10.90;;;2.15;;
64851;SDS011;56050;55.558;-4.644;2024-02-21T01:43:57;2.80;;;0.85;;
64851;SDS011;56050;55.558;-4.644;2024-02-21T01:48:52;9.95;;;2.38;;
64851;SDS011;56050;55.558;-4.644;2024-02-21T01:51:18;7.05;;;1.85;;
64851;SDS011;56050;55.558;-4.644;2024-02-21T01:53:44;3.80;;;0.45;;
64851;SDS011;56050;55.558;-4.644;2024-02-21T01:56:12;3.05;;;1.27;;
64851;SDS011;56050;55.558;-4.644;2024-02-21T01:58:38;8.20;;;1.38;;
64851;SDS011;56050;55.558;-4.644;2024-02-21T02:01:05;7.53;;;0.85;;
64851;SDS011;56050;55.558;-4.644;2024-02-21T02:05:56;4.20;;;1.30;;
64851;SDS011;56050;55.558;-4.644;2024-02-21T02:08:22;5.20;;;1.33;;
64851;SDS011;56050;55.558;-4.644;2024-02-21T02:10:52;9.05;;;2.67;;
64851;SDS011;56050;55.558;-4.644;2024-02-21T02:13:20;2.67;;;0.57;;
64851;SDS011;56050;55.558;-4.644;2024-02-21T02:18:14;6.45;;;1.25;;
64851;SDS011;56050;55.558;-4.644;2024-02-21T02:20:52;8.27;;;1.10;;
64851;SDS011;56050;55.558;-4.644;2024-02-21T02:23:32;9.40;;;1.65;;
64851;SDS011;56050;55.558;-4.644;2024-02-21T02:26:00;7.47;;;3.17;;
64851;SDS011;56050;55.558;-4.644;2024-02-21T02:28:33;6.63;;;1.33;;
64851;SDS011;56050;55.558;-4.644;2024-02-21T02:31:07;7.47;;;1.25;;
64851;SDS011;56050;55.558;-4.644;2024-02-21T02:33:39;6.25;;;1.27;;
64851;SDS011;56050;55.558;-4.644;2024-02-21T02:36:07;4.07;;;0.90;;
64851;SDS011;56050;55.558;-4.644;2024-02-21T02:38:43;5.30;;;1.33;;
64851;SDS011;56050;55.558;-4.644;2024-02-21T02:41:12;8.20;;;2.55;;
64851;SDS011;56050;55.558;-4.644;2024-02-21T02:43:37;7.03;;;1.65;;
64851;SDS011;56050;55.558;-4.644;2024-02-21T02:46:06;7.30;;;1.55;;
64851;SDS011;56050;55.558;-4.644;2024-02-21T02:48:35;6.90;;;1.00;;
64851;SDS011;56050;55.558;-4.644;2024-02-21T02:51:06;11.32;;;1.98;;
64851;SDS011;56050;55.558;-4.644;2024-02-21T02:53:44;4.22;;;1.45;;
64851;SDS011;56050;55.558;-4.644;2024-02-21T02:56:16;8.52;;;0.95;;
64851;SDS011;56050;55.558;-4.644;2024-02-21T02:58:44;6.97;;;0.77;;
64851;SDS011;56050;55.558;-4.644;2024-02-21T03:01:18;10.13;;;1.48;;
64851;SDS011;56050;55.558;-4.644;2024-02-21T03:03:44;7.80;;;1.17;;
64851;SDS011;56050;55.558;-4.644;2024-02-21T03:06:12;9.10;;;1.58;;
64851;SDS011;56050;55.558;-4.644;2024-02-21T03:11:05;7.30;;;0.85;;
64851;SDS011;56050;55.558;-4.644;2024-02-21T03:13:32;4.93;;;2.03;;
64851;SDS011;56050;55.558;-4.644;2024-02-21T03:18:24;9.50;;;3.28;;
64851;SDS011;56050;55.558;-4.644;2024-02-21T03:20:50;6.65;;;1.55;;
64851;SDS011;56050;55.558;-4.644;2024-02-21T03:25:42;15.25;;;1.52;;
64851;SDS011;56050;55.558;-4.644;2024-02-21T03:28:09;7.22;;;0.98;;
64851;SDS011;56050;55.558;-4.644;2024-02-21T03:30:35;5.70;;;1.13;;
64851;SDS011;56050;55.558;-4.644;2024-02-21T03:33:02;4.50;;;1.05;;
64851;SDS011;56050;55.558;-4.644;2024-02-21T03:35:30;4.78;;;1.52;;
64851;SDS011;56050;55.558;-4.644;2024-02-21T03:40:22;6.35;;;0.60;;
64851;SDS011;56050;55.558;-4.644;2024-02-21T03:42:49;5.57;;;0.95;;
64851;SDS011;56050;55.558;-4.644;2024-02-21T03:47:40;8.00;;;3.40;;
64851;SDS011;56050;55.558;-4.644;2024-02-21T03:50:13;7.10;;;1.10;;
64851;SDS011;56050;55.558;-4.644;2024-02-21T03:55:05;11.05;;;1.27;;
64851;SDS011;56050;55.558;-4.644;2024-02-21T03:58:00;6.72;;;1.52;;
64851;SDS011;56050;55.558;-4.644;2024-02-21T04:02:57;4.38;;;1.10;;
64851;SDS011;56050;55.558;-4.644;2024-02-21T04:07:49;6.85;;;1.13;;
64851;SDS011;56050;55.558;-4.644;2024-02-21T04:10:22;4.15;;;0.70;;
64851;SDS011;56050;55.558;-4.644;2024-02-21T04:15:18;5.45;;;1.13;;
64851;SDS011;56050;55.558;-4.644;2024-02-21T04:17:44;5.65;;;1.90;;
64851;SDS011;56050;55.558;-4.644;2024-02-21T04:20:16;3.90;;;1.15;;
64851;SDS011;56050;55.558;-4.644;2024-02-21T04:22:44;3.30;;;1.20;;
64851;SDS011;56050;55.558;-4.644;2024-02-21T04:25:12;3.42;;;0.47;;
64851;SDS011;56050;55.558;-4.644;2024-02-21T04:32:47;3.60;;;1.35;;
64851;SDS011;56050;55.558;-4.644;2024-02-21T04:35:16;3.58;;;2.15;;
64851;SDS011;56050;55.558;-4.644;2024-02-21T04:37:42;6.10;;;1.58;;
64851;SDS011;56050;55.558;-4.644;2024-02-21T04:40:12;6.07;;;1.13;;
64851;SDS011;56050;55.558;-4.644;2024-02-21T04:42:45;4.50;;;0.98;;
64851;SDS011;56050;55.558;-4.644;2024-02-21T04:45:12;2.60;;;1.88;;
64851;SDS011;56050;55.558;-4.644;2024-02-21T04:47:40;3.63;;;1.77;;
64851;SDS011;56050;55.558;-4.644;2024-02-21T04:50:07;1.60;;;0.85;;
64851;SDS011;56050;55.558;-4.644;2024-02-21T04:52:36;3.55;;;1.23;;
64851;SDS011;56050;55.558;-4.644;2024-02-21T04:55:04;3.88;;;1.20;;
64851;SDS011;56050;55.558;-4.644;2024-02-21T04:57:33;3.17;;;0.65;;
64851;SDS011;56050;55.558;-4.644;2024-02-21T05:00:01;3.03;;;1.90;;
64851;SDS011;56050;55.558;-4.644;2024-02-21T05:02:29;2.60;;;2.10;;
64851;SDS011;56050;55.558;-4.644;2024-02-21T05:04:56;3.30;;;1.98;;
64851;SDS011;56050;55.558;-4.644;2024-02-21T05:07:21;1.23;;;0.57;;
64851;SDS011;56050;55.558;-4.644;2024-02-21T05:12:12;0.87;;;0.57;;
64851;SDS011;56050;55.558;-4.644;2024-02-21T05:17:03;1.27;;;0.27;;
64851;SDS011;56050;55.558;-4.644;2024-02-21T05:19:29;0.77;;;0.73;;
64851;SDS011;56050;55.558;-4.644;2024-02-21T05:21:55;0.73;;;0.60;;
64851;SDS011;56050;55.558;-4.644;2024-02-21T05:24:20;1.05;;;0.63;;
64851;SDS011;56050;55.558;-4.644;2024-02-21T05:29:11;1.80;;;1.23;;
64851;SDS011;56050;55.558;-4.644;2024-02-21T05:31:54;1.08;;;0.93;;
64851;SDS011;56050;55.558;-4.644;2024-02-21T05:34:22;2.90;;;0.57;;
64851;SDS011;56050;55.558;-4.644;2024-02-21T05:39:14;1.65;;;1.55;;
64851;SDS011;56050;55.558;-4.644;2024-02-21T05:41:41;0.77;;;0.40;;
64851;SDS011;56050;55.558;-4.644;2024-02-21T05:46:32;1.40;;;0.63;;
64851;SDS011;56050;55.558;-4.644;2024-02-21T05:51:23;0.53;;;0.50;;
64851;SDS011;56050;55.558;-4.644;2024-02-21T05:56:14;0.30;;;0.27;;
64851;SDS011;56050;55.558;-4.644;2024-02-21T05:58:39;1.38;;;1.27;;
64851;SDS011;56050;55.558;-4.644;2024-02-21T06:01:05;0.70;;;0.43;;
64851;SDS011;56050;55.558;-4.644;2024-02-21T06:03:32;0.80;;;0.45;;
64851;SDS011;56050;55.558;-4.644;2024-02-21T06:05:58;0.47;;;0.47;;
64851;SDS011;56050;55.558;-4.644;2024-02-21T06:08:24;1.70;;;0.75;;
64851;SDS011;56050;55.558;-4.644;2024-02-21T06:13:19;0.98;;;0.95;;
64851;SDS011;56050;55.558;-4.644;2024-02-21T06:15:51;1.35;;;0.30;;
64851;SDS011;56050;55.558;-4.644;2024-02-21T06:18:19;0.98;;;0.68;;
64851;SDS011;56050;55.558;-4.644;2024-02-21T06:20:46;1.52;;;1.42;;
64851;SDS011;56050;55.558;-4.644;2024-02-21T06:23:12;1.13;;;1.08;;
64851;SDS011;56050;55.558;-4.644;2024-02-21T06:25:38;1.50;;;1.48;;
64851;SDS011;56050;55.558;-4.644;2024-02-21T06:28:05;0.80;;;0.80;;
64851;SDS011;56050;55.558;-4.644;2024-02-21T06:30:30;0.88;;;0.88;;
64851;SDS011;56050;55.558;-4.644;2024-02-21T06:35:22;0.73;;;0.73;;
64851;SDS011;56050;55.558;-4.644;2024-02-21T06:37:51;0.65;;;0.25;;
64851;SDS011;56050;55.558;-4.644;2024-02-21T06:42:48;1.48;;;1.40;;
64851;SDS011;56050;55.558;-4.644;2024-02-21T06:45:14;0.35;;;0.35;;
64851;SDS011;56050;55.558;-4.644;2024-02-21T06:47:40;0.35;;;0.32;;
64851;SDS011;56050;55.558;-4.644;2024-02-21T06:52:31;1.90;;;0.65;;
64851;SDS011;56050;55.558;-4.644;2024-02-21T06:57:22;0.43;;;0.43;;
64851;SDS011;56050;55.558;-4.644;2024-02-21T07:02:13;1.23;;;0.47;;
64851;SDS011;56050;55.558;-4.644;2024-02-21T07:07:04;0.80;;;0.70;;
64851;SDS011;56050;55.558;-4.644;2024-02-21T07:11:57;1.27;;;0.85;;
64851;SDS011;56050;55.558;-4.644;2024-02-21T07:14:23;1.25;;;1.25;;
64851;SDS011;56050;55.558;-4.644;2024-02-21T07:19:14;1.90;;;1.70;;
64851;SDS011;56050;55.558;-4.644;2024-02-21T07:24:07;0.73;;;0.68;;
64851;SDS011;56050;55.558;-4.644;2024-02-21T07:26:33;1.10;;;0.65;;
64851;SDS011;56050;55.558;-4.644;2024-02-21T07:28:58;1.73;;;0.85;;
64851;SDS011;56050;55.558;-4.644;2024-02-21T07:33:49;2.63;;;1.07;;
64851;SDS011;56050;55.558;-4.644;2024-02-21T07:38:40;1.17;;;1.10;;
64851;SDS011;56050;55.558;-4.644;2024-02-21T07:43:31;0.30;;;0.30;;
64851;SDS011;56050;55.558;-4.644;2024-02-21T07:48:22;0.67;;;0.43;;
64851;SDS011;56050;55.558;-4.644;2024-02-21T07:50:51;0.57;;;0.30;;
64851;SDS011;56050;55.558;-4.644;2024-02-21T07:53:17;0.50;;;0.50;;
64851;SDS011;56050;55.558;-4.644;2024-02-21T07:55:42;0.93;;;0.82;;
64851;SDS011;56050;55.558;-4.644;2024-02-21T07:58:09;1.52;;;0.43;;
64851;SDS011;56050;55.558;-4.644;2024-02-21T08:00:34;1.92;;;0.43;;
64851;SDS011;56050;55.558;-4.644;2024-02-21T08:02:59;2.42;;;2.33;;
64851;SDS011;56050;55.558;-4.644;2024-02-21T08:05:25;0.82;;;0.82;;
64851;SDS011;56050;55.558;-4.644;2024-02-21T08:07:50;0.45;;;0.43;;
64851;SDS011;56050;55.558;-4.644;2024-02-21T08:10:16;0.63;;;0.63;;
64851;SDS011;56050;55.558;-4.644;2024-02-21T08:12:41;0.75;;;0.75;;
64851;SDS011;56050;55.558;-4.644;2024-02-21T08:15:07;0.57;;;0.30;;
64851;SDS011;56050;55.558;-4.644;2024-02-21T08:17:35;0.68;;;0.68;;
64851;SDS011;56050;55.558;-4.644;2024-02-21T08:20:01;1.02;;;1.02;;
64851;SDS011;56050;55.558;-4.644;2024-02-21T08:22:28;0.32;;;0.15;;
64851;SDS011;56050;55.558;-4.644;2024-02-21T08:24:53;1.52;;;1.42;;
64851;SDS011;56050;55.558;-4.644;2024-02-21T08:27:19;0.60;;;0.50;;
64851;SDS011;56050;55.558;-4.644;2024-02-21T08:29:44;1.75;;;1.75;;
64851;SDS011;56050;55.558;-4.644;2024-02-21T08:32:09;1.90;;;1.80;;
64851;SDS011;56050;55.558;-4.644;2024-02-21T08:34:35;0.47;;;0.47;;
64851;SDS011;56050;55.558;-4.644;2024-02-21T08:37:00;0.30;;;0.20;;
64851;SDS011;56050;55.558;-4.644;2024-02-21T08:39:26;0.82;;;0.82;;
64851;SDS011;56050;55.558;-4.644;2024-02-21T08:41:53;0.30;;;0.30;;
64851;SDS011;56050;55.558;-4.644;2024-02-21T08:44:19;0.70;;;0.65;;
64851;SDS011;56050;55.558;-4.644;2024-02-21T08:46:44;0.60;;;0.43;;
64851;SDS011;56050;55.558;-4.644;2024-02-21T08:49:12;0.82;;;0.82;;
64851;SDS011;56050;55.558;-4.644;2024-02-21T08:51:38;0.73;;;0.73;;
64851;SDS011;56050;55.558;-4.644;2024-02-21T08:54:04;0.65;;;0.65;;
64851;SDS011;56050;55.558;-4.644;2024-02-21T08:56:30;0.45;;;0.38;;
64851;SDS011;56050;55.558;-4.644;2024-02-21T08:58:56;0.28;;;0.28;;
64851;SDS011;56050;55.558;-4.644;2024-02-21T09:01:22;0.57;;;0.57;;
64851;SDS011;56050;55.558;-4.644;2024-02-21T09:03:48;0.38;;;0.38;;
64851;SDS011;56050;55.558;-4.644;2024-02-21T09:06:19;1.30;;;0.70;;
64851;SDS011;56050;55.558;-4.644;2024-02-21T09:08:45;0.32;;;0.32;;
64851;SDS011;56050;55.558;-4.644;2024-02-21T09:11:11;0.73;;;0.73;;
64851;SDS011;56050;55.558;-4.644;2024-02-21T09:13:37;0.52;;;0.52;;
64851;SDS011;56050;55.558;-4.644;2024-02-21T09:18:28;0.30;;;0.30;;
64851;SDS011;56050;55.558;-4.644;2024-02-21T09:20:54;0.32;;;0.30;;
64851;SDS011;56050;55.558;-4.644;2024-02-21T09:23:20;1.08;;;1.08;;
64851;SDS011;56050;55.558;-4.644;2024-02-21T09:25:45;0.32;;;0.32;;
64851;SDS011;56050;55.558;-4.644;2024-02-21T09:28:12;1.60;;;0.77;;
64851;SDS011;56050;55.558;-4.644;2024-02-21T09:30:38;0.43;;;0.30;;
64851;SDS011;56050;55.558;-4.644;2024-02-21T09:33:04;3.30;;;0.68;;
64851;SDS011;56050;55.558;-4.644;2024-02-21T09:35:30;1.48;;;0.55;;
64851;SDS011;56050;55.558;-4.644;2024-02-21T09:37:56;0.80;;;0.57;;
64851;SDS011;56050;55.558;-4.644;2024-02-21T09:40:21;0.63;;;0.63;;
64851;SDS011;56050;55.558;-4.644;2024-02-21T09:42:47;0.63;;;0.63;;
64851;SDS011;56050;55.558;-4.644;2024-02-21T09:45:15;0.90;;;0.90;;
64851;SDS011;56050;55.558;-4.644;2024-02-21T09:47:53;0.43;;;0.35;;
64851;SDS011;56050;55.558;-4.644;2024-02-21T09:50:29;0.80;;;0.50;;
64851;SDS011;56050;55.558;-4.644;2024-02-21T09:52:59;0.80;;;0.35;;
64851;SDS011;56050;55.558;-4.644;2024-02-21T09:55:27;1.35;;;1.33;;
64851;SDS011;56050;55.558;-4.644;2024-02-21T09:57:57;1.10;;;0.68;;
64851;SDS011;56050;55.558;-4.644;2024-02-21T10:00:24;0.47;;;0.47;;
64851;SDS011;56050;55.558;-4.644;2024-02-21T10:02:50;2.72;;;2.63;;
64851;SDS011;56050;55.558;-4.644;2024-02-21T10:05:15;0.77;;;0.77;;
64851;SDS011;56050;55.558;-4.644;2024-02-21T10:07:42;1.02;;;0.73;;
64851;SDS011;56050;55.558;-4.644;2024-02-21T10:10:09;0.57;;;0.57;;
64851;SDS011;56050;55.558;-4.644;2024-02-21T10:12:34;0.35;;;0.28;;
64851;SDS011;56050;55.558;-4.644;2024-02-21T10:15:03;0.65;;;0.65;;
64851;SDS011;56050;55.558;-4.644;2024-02-21T10:17:30;1.45;;;1.40;;
64851;SDS011;56050;55.558;-4.644;2024-02-21T10:20:06;0.35;;;0.28;;
64851;SDS011;56050;55.558;-4.644;2024-02-21T10:22:33;1.75;;;1.65;;
64851;SDS011;56050;55.558;-4.644;2024-02-21T10:25:07;0.43;;;0.35;;
64851;SDS011;56050;55.558;-4.644;2024-02-21T10:27:36;0.50;;;0.17;;
64851;SDS011;56050;55.558;-4.644;2024-02-21T10:30:03;0.60;;;0.35;;
64851;SDS011;56050;55.558;-4.644;2024-02-21T10:32:30;0.70;;;0.70;;
64851;SDS011;56050;55.558;-4.644;2024-02-21T10:35:02;0.35;;;0.35;;
64851;SDS011;56050;55.558;-4.644;2024-02-21T10:37:33;0.70;;;0.47;;
64851;SDS011;56050;55.558;-4.644;2024-02-21T10:40:00;0.40;;;0.38;;
64851;SDS011;56050;55.558;-4.644;2024-02-21T10:42:28;1.30;;;0.52;;
64851;SDS011;56050;55.558;-4.644;2024-02-21T10:45:00;2.75;;;0.63;;
64851;SDS011;56050;55.558;-4.644;2024-02-21T10:47:29;0.75;;;0.63;;
64851;SDS011;56050;55.558;-4.644;2024-02-21T10:49:57;0.93;;;0.47;;
64851;SDS011;56050;55.558;-4.644;2024-02-21T10:55:21;0.57;;;0.43;;
64851;SDS011;56050;55.558;-4.644;2024-02-21T10:57:55;0.75;;;0.75;;
64851;SDS011;56050;55.558;-4.644;2024-02-21T11:00:22;0.93;;;0.25;;
64851;SDS011;56050;55.558;-4.644;2024-02-21T11:02:55;0.98;;;0.73;;
64851;SDS011;56050;55.558;-4.644;2024-02-21T11:05:22;0.85;;;0.80;;
64851;SDS011;56050;55.558;-4.644;2024-02-21T11:07:49;1.63;;;0.63;;
64851;SDS011;56050;55.558;-4.644;2024-02-21T11:10:25;0.70;;;0.70;;
64851;SDS011;56050;55.558;-4.644;2024-02-21T11:13:05;0.52;;;0.52;;
64851;SDS011;56050;55.558;-4.644;2024-02-21T11:15:32;0.60;;;0.60;;
64851;SDS011;56050;55.558;-4.644;2024-02-21T11:17:58;1.65;;;0.70;;
64851;SDS011;56050;55.558;-4.644;2024-02-21T11:20:35;0.60;;;0.60;;
64851;SDS011;56050;55.558;-4.644;2024-02-21T11:23:02;0.98;;;0.98;;
64851;SDS011;56050;55.558;-4.644;2024-02-21T11:25:28;1.23;;;0.47;;
64851;SDS011;56050;55.558;-4.644;2024-02-21T11:28:07;1.33;;;0.40;;
64851;SDS011;56050;55.558;-4.644;2024-02-21T11:30:35;1.80;;;1.08;;
64851;SDS011;56050;55.558;-4.644;2024-02-21T11:33:05;1.38;;;0.55;;
64851;SDS011;56050;55.558;-4.644;2024-02-21T11:35:35;1.27;;;0.80;;
64851;SDS011;56050;55.558;-4.644;2024-02-21T11:38:13;2.75;;;0.73;;
64851;SDS011;56050;55.558;-4.644;2024-02-21T11:40:44;1.10;;;1.00;;
64851;SDS011;56050;55.558;-4.644;2024-02-21T11:43:11;1.73;;;0.98;;
64851;SDS011;56050;55.558;-4.644;2024-02-21T11:45:36;3.83;;;0.93;;
64851;SDS011;56050;55.558;-4.644;2024-02-21T11:48:05;4.57;;;0.47;;
64851;SDS011;56050;55.558;-4.644;2024-02-21T11:50:31;3.58;;;0.65;;
64851;SDS011;56050;55.558;-4.644;2024-02-21T11:52:57;2.72;;;0.52;;
64851;SDS011;56050;55.558;-4.644;2024-02-21T11:55:23;5.40;;;0.88;;
64851;SDS011;56050;55.558;-4.644;2024-02-21T11:57:48;5.13;;;1.45;;
64851;SDS011;56050;55.558;-4.644;2024-02-21T12:00:17;4.35;;;1.42;;
64851;SDS011;56050;55.558;-4.644;2024-02-21T12:02:46;3.53;;;0.70;;
64851;SDS011;56050;55.558;-4.644;2024-02-21T12:05:13;6.78;;;1.00;;
64851;SDS011;56050;55.558;-4.644;2024-02-21T12:07:39;11.18;;;1.38;;
64851;SDS011;56050;55.558;-4.644;2024-02-21T12:12:37;9.35;;;1.33;;
64851;SDS011;56050;55.558;-4.644;2024-02-21T12:15:04;6.43;;;1.15;;
64851;SDS011;56050;55.558;-4.644;2024-02-21T12:17:32;4.18;;;0.73;;
64851;SDS011;56050;55.558;-4.644;2024-02-21T12:19:59;9.32;;;1.13;;
64851;SDS011;56050;55.558;-4.644;2024-02-21T12:22:24;8.32;;;1.50;;
64851;SDS011;56050;55.558;-4.644;2024-02-21T12:24:50;10.25;;;1.15;;
64851;SDS011;56050;55.558;-4.644;2024-02-21T12:27:16;4.63;;;1.00;;
64851;SDS011;56050;55.558;-4.644;2024-02-21T12:29:41;8.43;;;1.95;;
64851;SDS011;56050;55.558;-4.644;2024-02-21T12:32:06;12.63;;;1.02;;
64851;SDS011;56050;55.558;-4.644;2024-02-21T12:34:32;8.93;;;1.33;;
64851;SDS011;56050;55.558;-4.644;2024-02-21T12:36:58;10.10;;;1.17;;
64851;SDS011;56050;55.558;-4.644;2024-02-21T12:39:23;7.20;;;1.17;;
64851;SDS011;56050;55.558;-4.644;2024-02-21T12:41:49;8.95;;;1.17;;
64851;SDS011;56050;55.558;-4.644;2024-02-21T12:44:15;9.90;;;1.05;;
64851;SDS011;56050;55.558;-4.644;2024-02-21T12:46:42;8.52;;;0.90;;
64851;SDS011;56050;55.558;-4.644;2024-02-21T12:49:07;11.52;;;1.40;;
64851;SDS011;56050;55.558;-4.644;2024-02-21T12:51:33;7.15;;;2.70;;
64851;SDS011;56050;55.558;-4.644;2024-02-21T12:53:59;8.98;;;1.25;;
64851;SDS011;56050;55.558;-4.644;2024-02-21T12:56:25;9.32;;;2.25;;
64851;SDS011;56050;55.558;-4.644;2024-02-21T12:58:52;10.75;;;1.23;;
64851;SDS011;56050;55.558;-4.644;2024-02-21T13:01:18;11.38;;;0.77;;
64851;SDS011;56050;55.558;-4.644;2024-02-21T13:03:44;11.93;;;1.30;;
64851;SDS011;56050;55.558;-4.644;2024-02-21T13:06:09;8.85;;;1.35;;
64851;SDS011;56050;55.558;-4.644;2024-02-21T13:08:36;8.43;;;1.38;;
64851;SDS011;56050;55.558;-4.644;2024-02-21T13:11:02;4.70;;;0.63;;
64851;SDS011;56050;55.558;-4.644;2024-02-21T13:13:27;10.00;;;2.13;;
64851;SDS011;56050;55.558;-4.644;2024-02-21T13:15:53;9.27;;;0.93;;
64851;SDS011;56050;55.558;-4.644;2024-02-21T13:18:19;12.85;;;1.13;;
64851;SDS011;56050;55.558;-4.644;2024-02-21T13:20:46;9.88;;;1.30;;
64851;SDS011;56050;55.558;-4.644;2024-02-21T13:23:12;3.47;;;1.35;;
64851;SDS011;56050;55.558;-4.644;2024-02-21T13:25:38;5.32;;;1.38;;
64851;SDS011;56050;55.558;-4.644;2024-02-21T13:28:03;6.32;;;1.92;;
64851;SDS011;56050;55.558;-4.644;2024-02-21T13:30:29;7.65;;;1.33;;
64851;SDS011;56050;55.558;-4.644;2024-02-21T13:32:54;8.23;;;0.98;;
64851;SDS011;56050;55.558;-4.644;2024-02-21T13:35:20;9.75;;;1.50;;
64851;SDS011;56050;55.558;-4.644;2024-02-21T13:37:46;8.95;;;1.33;;
64851;SDS011;56050;55.558;-4.644;2024-02-21T13:40:11;3.90;;;1.13;;
64851;SDS011;56050;55.558;-4.644;2024-02-21T13:42:38;4.00;;;1.00;;
64851;SDS011;56050;55.558;-4.644;2024-02-21T13:45:05;10.07;;;1.60;;
64851;SDS011;56050;55.558;-4.644;2024-02-21T13:47:32;11.45;;;2.95;;
64851;SDS011;56050;55.558;-4.644;2024-02-21T13:49:58;9.20;;;1.30;;
64851;SDS011;56050;55.558;-4.644;2024-02-21T13:52:23;6.32;;;1.20;;
64851;SDS011;56050;55.558;-4.644;2024-02-21T13:54:51;12.38;;;1.30;;
64851;SDS011;56050;55.558;-4.644;2024-02-21T13:57:17;8.98;;;1.25;;
64851;SDS011;56050;55.558;-4.644;2024-02-21T13:59:43;11.70;;;2.47;;
64851;SDS011;56050;55.558;-4.644;2024-02-21T14:02:08;13.35;;;2.00;;
64851;SDS011;56050;55.558;-4.644;2024-02-21T14:04:34;14.52;;;2.30;;
64851;SDS011;56050;55.558;-4.644;2024-02-21T14:07:00;14.18;;;1.50;;
64851;SDS011;56050;55.558;-4.644;2024-02-21T14:09:25;8.25;;;2.17;;
64851;SDS011;56050;55.558;-4.644;2024-02-21T14:11:52;13.60;;;2.13;;
64851;SDS011;56050;55.558;-4.644;2024-02-21T14:14:17;11.07;;;3.47;;
64851;SDS011;56050;55.558;-4.644;2024-02-21T14:16:43;17.67;;;1.98;;
64851;SDS011;56050;55.558;-4.644;2024-02-21T14:19:08;5.25;;;1.48;;
64851;SDS011;56050;55.558;-4.644;2024-02-21T14:21:34;10.27;;;1.70;;
64851;SDS011;56050;55.558;-4.644;2024-02-21T14:24:03;6.03;;;1.25;;
64851;SDS011;56050;55.558;-4.644;2024-02-21T14:26:29;10.20;;;1.65;;
64851;SDS011;56050;55.558;-4.644;2024-02-21T14:28:56;10.02;;;1.52;;
64851;SDS011;56050;55.558;-4.644;2024-02-21T14:33:58;6.32;;;1.15;;
64851;SDS011;56050;55.558;-4.644;2024-02-21T14:36:23;11.90;;;2.00;;
64851;SDS011;56050;55.558;-4.644;2024-02-21T14:38:49;9.88;;;1.08;;
64851;SDS011;56050;55.558;-4.644;2024-02-21T14:41:17;13.98;;;1.73;;
64851;SDS011;56050;55.558;-4.644;2024-02-21T14:43:43;14.48;;;1.38;;
64851;SDS011;56050;55.558;-4.644;2024-02-21T14:46:09;8.05;;;1.63;;
64851;SDS011;56050;55.558;-4.644;2024-02-21T14:48:34;10.38;;;1.48;;
64851;SDS011;56050;55.558;-4.644;2024-02-21T14:51:01;13.90;;;3.35;;
64851;SDS011;56050;55.558;-4.644;2024-02-21T14:53:27;10.07;;;1.63;;
64851;SDS011;56050;55.558;-4.644;2024-02-21T14:55:52;8.77;;;1.40;;
64851;SDS011;56050;55.558;-4.644;2024-02-21T14:58:18;8.00;;;1.80;;
64851;SDS011;56050;55.558;-4.644;2024-02-21T15:00:44;8.27;;;1.30;;
64851;SDS011;56050;55.558;-4.644;2024-02-21T15:03:12;7.95;;;0.95;;
64851;SDS011;56050;55.558;-4.644;2024-02-21T15:05:40;8.10;;;2.33;;
64851;SDS011;56050;55.558;-4.644;2024-02-21T15:08:06;7.72;;;1.13;;
64851;SDS011;56050;55.558;-4.644;2024-02-21T15:10:32;15.45;;;1.23;;
64851;SDS011;56050;55.558;-4.644;2024-02-21T15:13:00;11.75;;;2.33;;
64851;SDS011;56050;55.558;-4.644;2024-02-21T15:15:25;10.13;;;2.33;;
64851;SDS011;56050;55.558;-4.644;2024-02-21T15:17:51;8.75;;;1.85;;
64851;SDS011;56050;55.558;-4.644;2024-02-21T15:20:16;14.55;;;2.15;;
64851;SDS011;56050;55.558;-4.644;2024-02-21T15:22:42;7.85;;;1.17;;
64851;SDS011;56050;55.558;-4.644;2024-02-21T15:25:09;8.90;;;1.77;;
64851;SDS011;56050;55.558;-4.644;2024-02-21T15:27:43;11.10;;;1.90;;
64851;SDS011;56050;55.558;-4.644;2024-02-21T15:30:10;14.50;;;2.17;;
64851;SDS011;56050;55.558;-4.644;2024-02-21T15:32:39;9.88;;;2.25;;
64851;SDS011;56050;55.558;-4.644;2024-02-21T15:35:05;7.47;;;1.50;;
64851;SDS011;56050;55.558;-4.644;2024-02-21T15:37:34;8.65;;;1.48;;
64851;SDS011;56050;55.558;-4.644;2024-02-21T15:40:00;10.00;;;1.60;;
64851;SDS011;56050;55.558;-4.644;2024-02-21T15:42:26;10.95;;;1.85;;
64851;SDS011;56050;55.558;-4.644;2024-02-21T15:44:51;10.82;;;1.73;;
64851;SDS011;56050;55.558;-4.644;2024-02-21T15:47:18;12.57;;;2.35;;
64851;SDS011;56050;55.558;-4.644;2024-02-21T15:49:46;10.90;;;1.63;;
64851;SDS011;56050;55.558;-4.644;2024-02-21T15:52:12;17.85;;;2.15;;
64851;SDS011;56050;55.558;-4.644;2024-02-21T15:54:37;12.20;;;1.52;;
64851;SDS011;56050;55.558;-4.644;2024-02-21T15:57:04;8.65;;;1.75;;
64851;SDS011;56050;55.558;-4.644;2024-02-21T15:59:33;16.25;;;2.50;;
64851;SDS011;56050;55.558;-4.644;2024-02-21T16:01:59;9.27;;;1.63;;
64851;SDS011;56050;55.558;-4.644;2024-02-21T16:04:26;13.65;;;1.83;;
64851;SDS011;56050;55.558;-4.644;2024-02-21T16:06:51;12.80;;;3.17;;
64851;SDS011;56050;55.558;-4.644;2024-02-21T16:09:17;13.27;;;1.90;;
64851;SDS011;56050;55.558;-4.644;2024-02-21T16:11:43;10.07;;;3.20;;
64851;SDS011;56050;55.558;-4.644;2024-02-21T16:14:09;11.50;;;3.05;;
64851;SDS011;56050;55.558;-4.644;2024-02-21T16:16:34;12.80;;;2.90;;
64851;SDS011;56050;55.558;-4.644;2024-02-21T16:19:01;14.43;;;2.05;;
64851;SDS011;56050;55.558;-4.644;2024-02-21T16:21:27;14.25;;;2.42;;
64851;SDS011;56050;55.558;-4.644;2024-02-21T16:23:54;11.38;;;1.95;;
64851;SDS011;56050;55.558;-4.644;2024-02-21T16:26:19;17.98;;;2.70;;
64851;SDS011;56050;55.558;-4.644;2024-02-21T16:28:45;15.35;;;2.90;;
64851;SDS011;56050;55.558;-4.644;2024-02-21T16:31:11;16.42;;;2.83;;
64851;SDS011;56050;55.558;-4.644;2024-02-21T16:33:37;18.33;;;2.85;;
64851;SDS011;56050;55.558;-4.644;2024-02-21T16:36:03;15.90;;;2.67;;
64851;SDS011;56050;55.558;-4.644;2024-02-21T16:38:32;16.80;;;2.88;;